Time;durP1;ratioP1;P1;durP2;ratioP2;P2;SDS_P1;SDS_P2;PMS_P1;PMS_P2;Temp;Humidity;BMP_temperature;BMP_pressure;BME280_temperature;BME280_humidity;BME280_pressure;Samples;Min_cycle;Max_cycle;Signal;HPM_P1;HPM_P2
2022/08/02 14:10:25;;;;;;;14.55;2.45;;;;;;;26.32;30.61;99335.16;5258829;22;20167;-64
2022/08/02 14:13:54;;;;;;;12.35;1.80;;;;;;;26.39;30.48;99337.06;5050074;28;20437;-65
2022/08/02 14:16:21;;;;;;;3.45;1.80;;;;;;;26.36;30.93;99323.69;5049731;28;20041;-66
2022/08/02 14:18:58;;;;;;;8.00;2.05;;;;;;;26.32;30.80;99329.44;5049374;28;20179;-65
2022/08/02 14:21:25;;;;;;;3.33;1.73;;;;;;;26.27;30.76;99332.84;5048613;28;20052;-64
2022/08/02 14:23:52;;;;;;;12.98;2.65;;;;;;;26.16;30.66;99326.59;5048926;28;20053;-67
2022/08/02 14:26:19;;;;;;;18.75;2.92;;;;;;;26.11;31.10;99323.47;5047121;28;20049;-65
2022/08/02 14:28:54;;;;;;;30.50;2.75;;;;;;;26.11;30.99;99318.53;5039955;28;20049;-69
2022/08/02 14:31:22;;;;;;;24.02;3.53;;;;;;;26.10;31.55;99325.50;5047826;28;20053;-68
2022/08/02 14:33:52;;;;;;;12.15;2.30;;;;;;;26.03;31.33;99331.38;5048155;28;20045;-68
2022/08/02 14:36:19;;;;;;;36.53;3.95;;;;;;;26.03;31.42;99331.38;5049355;28;20052;-68
2022/08/02 14:38:54;;;;;;;5.80;2.00;;;;;;;26.05;31.17;99330.94;5049148;28;20057;-69
2022/08/02 14:41:22;;;;;;;10.00;2.10;;;;;;;26.11;31.22;99329.16;5049227;28;20076;-68
2022/08/02 14:44:04;;;;;;;3.67;1.70;;;;;;;26.08;31.17;99330.06;5049659;28;20523;-69
2022/08/02 14:46:32;;;;;;;3.63;2.17;;;;;;;26.08;31.18;99325.13;5049250;28;20057;-68
2022/08/02 14:49:02;;;;;;;19.83;2.45;;;;;;;26.14;31.05;99331.91;5049216;28;20499;-68
2022/08/02 14:51:30;;;;;;;9.68;1.90;;;;;;;26.14;31.15;99339.69;5049264;28;20440;-68
2022/08/02 14:53:58;;;;;;;6.85;2.20;;;;;;;26.13;30.95;99329.50;5049113;28;20412;-68
2022/08/02 14:56:29;;;;;;;2.80;1.80;;;;;;;26.09;31.00;99326.75;5049098;28;20053;-68
2022/08/02 14:58:56;;;;;;;2.85;1.80;;;;;;;26.06;31.58;99327.66;5047263;28;20396;-68
2022/08/02 15:01:23;;;;;;;11.57;2.60;;;;;;;26.00;31.35;99322.91;5028889;28;20504;-68
2022/08/02 15:03:52;;;;;;;22.90;2.70;;;;;;;25.95;31.46;99327.03;5029222;28;20037;-69
2022/08/02 15:06:19;;;;;;;5.45;1.70;;;;;;;25.85;31.68;99322.38;5028678;28;20530;-68
2022/08/02 15:08:46;;;;;;;5.95;2.33;;;;;;;25.79;31.77;99324.16;5028887;28;20056;-69
2022/08/02 15:11:13;;;;;;;4.75;2.10;;;;;;;25.74;31.86;99327.50;5037543;28;20045;-65
2022/08/02 15:13:43;;;;;;;7.45;2.00;;;;;;;25.70;31.93;99320.28;5043344;28;20053;-63
2022/08/02 15:16:09;;;;;;;2.92;1.60;;;;;;;25.67;31.88;99321.97;5030627;28;20508;-67
2022/08/02 15:18:36;;;;;;;3.97;1.45;;;;;;;25.67;32.25;99316.25;5046442;28;20056;-63
2022/08/02 15:21:06;;;;;;;3.45;1.67;;;;;;;25.69;32.30;99318.69;5043117;28;20164;-67
2022/08/02 15:23:52;;;;;;;4.35;1.88;;;;;;;25.65;32.34;99324.44;5036356;28;20052;-63
2022/08/02 15:26:20;;;;;;;3.55;1.70;;;;;;;25.65;32.16;99317.94;5031086;28;20049;-64
2022/08/02 15:28:49;;;;;;;7.20;1.70;;;;;;;25.63;32.28;99326.91;5027825;28;20393;-63
2022/08/02 15:31:22;;;;;;;4.88;1.83;;;;;;;25.61;31.82;99322.91;5027521;28;20096;-65
2022/08/02 15:33:59;;;;;;;8.50;1.88;;;;;;;25.62;32.24;99319.63;5031751;28;20037;-64
2022/08/02 15:36:28;;;;;;;2.33;1.50;;;;;;;25.62;32.13;99322.47;5030484;28;20063;-65
2022/08/02 15:38:56;;;;;;;9.63;2.95;;;;;;;25.61;31.80;99317.22;5025150;28;20049;-65
2022/08/02 15:41:23;;;;;;;14.35;2.42;;;;;;;25.62;31.79;99318.81;5030062;28;20055;-65
2022/08/02 15:43:50;;;;;;;7.15;1.60;;;;;;;25.62;32.00;99325.31;5026820;28;20038;-65
2022/08/02 15:46:27;;;;;;;2.33;1.60;;;;;;;25.61;31.64;99315.16;5031178;28;20056;-62
2022/08/02 15:48:56;;;;;;;3.45;1.80;;;;;;;25.59;31.83;99323.34;5034132;28;20046;-64
2022/08/02 15:51:25;;;;;;;5.10;1.90;;;;;;;25.55;32.15;99318.97;5034302;28;20084;-66
2022/08/02 15:53:54;;;;;;;4.80;1.60;;;;;;;25.54;32.33;99318.16;5027639;28;20041;-65
2022/08/02 16:24:56;;;;;;;16.00;2.55;;;;;;;25.78;31.85;99325.38;5062389;27;76807;-62
2022/08/02 16:27:23;;;;;;;10.20;2.35;;;;;;;25.55;32.75;99327.50;5055320;28;20132;-65
2022/08/02 16:29:50;;;;;;;24.90;4.20;;;;;;;25.43;32.98;99326.09;5048053;28;20053;-64
2022/08/02 16:32:18;;;;;;;17.75;2.40;;;;;;;25.36;33.07;99334.81;5056507;28;20052;-65
2022/08/02 16:34:45;;;;;;;31.55;4.90;;;;;;;25.30;33.53;99330.00;5046693;28;20986;-64
2022/08/02 16:37:34;;;;;;;32.35;4.97;;;;;;;25.13;34.44;99334.00;5064273;28;20049;-62
2022/08/02 16:40:19;;;;;;;77.68;7.90;;;;;;;25.04;34.65;99329.69;5058438;28;20045;-67
2022/08/02 16:42:46;;;;;;;43.33;4.88;;;;;;;25.01;34.90;99335.44;5046652;28;20050;-61
2022/08/02 16:45:18;;;;;;;74.93;7.90;;;;;;;24.99;35.08;99343.63;5062448;28;20102;-62
2022/08/02 16:47:48;;;;;;;74.88;6.70;;;;;;;24.89;35.37;99336.06;5060552;28;20136;-61
2022/08/02 16:50:26;;;;;;;91.45;12.88;;;;;;;24.82;35.49;99339.84;5058798;28;20045;-68
2022/08/02 16:52:56;;;;;;;69.53;7.00;;;;;;;24.75;36.02;99342.81;5052643;28;20053;-61
2022/08/02 16:55:24;;;;;;;70.95;7.13;;;;;;;24.64;36.09;99344.19;5066124;28;20041;-61
2022/08/02 16:57:51;;;;;;;90.72;8.35;;;;;;;24.60;36.53;99343.47;5057963;28;20051;-62
2022/08/02 17:00:23;;;;;;;99.70;10.43;;;;;;;24.52;36.50;99347.66;5052477;28;20054;-64
2022/08/02 17:02:49;;;;;;;61.42;7.57;;;;;;;24.43;36.69;99350.22;5058896;22;20049;-63
2022/08/02 17:05:19;;;;;;;83.00;6.32;;;;;;;24.38;37.05;99364.91;5056757;28;20049;-62
2022/08/02 17:07:47;;;;;;;56.20;7.00;;;;;;;24.32;37.21;99352.41;5049975;28;20053;-61
2022/08/02 17:10:34;;;;;;;78.32;10.15;;;;;;;24.28;37.24;99354.53;5067478;28;20071;-62
2022/08/02 17:13:04;;;;;;;95.45;10.38;;;;;;;24.25;37.22;99361.06;5068366;28;20973;-62
2022/08/02 17:15:38;;;;;;;63.35;8.00;;;;;;;24.20;37.46;99355.84;5067446;28;20040;-68
2022/08/02 17:18:25;;;;;;;129.98;11.55;;;;;;;24.17;37.16;99353.88;5067637;28;20052;-68
2022/08/02 17:20:53;;;;;;;174.52;16.55;;;;;;;24.11;37.46;99362.09;5066751;28;20459;-64
2022/08/02 17:23:20;;;;;;;121.95;11.93;;;;;;;24.02;37.57;99372.34;5068017;28;20040;-64
2022/08/02 17:25:47;;;;;;;119.38;10.90;;;;;;;23.96;37.81;99368.38;5066577;28;20053;-64
2022/08/02 17:28:18;;;;;;;106.45;11.02;;;;;;;23.90;37.79;99367.22;5066261;28;20128;-65
2022/08/02 17:30:45;;;;;;;110.05;11.65;;;;;;;23.88;37.96;99373.31;5071418;28;20131;-66
2022/08/02 17:33:12;;;;;;;125.95;10.55;;;;;;;23.83;38.09;99370.94;5064711;28;20045;-65
2022/08/02 17:35:39;;;;;;;215.90;20.40;;;;;;;23.78;38.38;99379.13;5056310;28;20098;-63
2022/08/02 17:38:18;;;;;;;175.05;14.88;;;;;;;23.64;38.40;99371.59;5057412;28;20040;-61
2022/08/02 17:40:54;;;;;;;151.25;14.10;;;;;;;23.62;38.70;99373.25;5055655;28;20049;-62
2022/08/02 17:43:23;;;;;;;143.60;11.27;;;;;;;23.62;38.74;99373.25;5056960;28;20048;-64
2022/08/02 17:46:12;;;;;;;83.40;9.00;;;;;;;23.56;38.83;99374.94;5054832;28;20136;-65
2022/08/02 17:51:25;;;;;;;89.53;8.55;;;;;;;23.42;38.95;99380.78;5050147;28;19929;-65
2022/08/02 17:54:16;;;;;;;21.40;3.55;;;;;;;23.38;38.86;99373.13;5054151;28;20037;-65
2022/08/02 17:56:46;;;;;;;28.58;4.22;;;;;;;23.33;38.98;99379.25;5053465;28;20044;-63
2022/08/02 17:59:17;;;;;;;32.35;3.88;;;;;;;23.29;39.29;99372.81;5060310;28;20387;-62
2022/08/02 18:01:48;;;;;;;19.65;3.95;;;;;;;23.23;39.52;99373.66;5055006;28;20131;-61
2022/08/02 18:04:32;;;;;;;85.95;27.42;;;;;;;23.20;39.52;99375.31;5057050;28;20045;-66
2022/08/02 18:07:02;;;;;;;17.85;4.20;;;;;;;23.14;39.20;99377.00;5049868;28;20135;-63
2022/08/02 18:09:30;;;;;;;29.35;3.75;;;;;;;23.11;39.77;99377.00;5053472;28;20094;-64
2022/08/02 18:12:05;;;;;;;30.80;4.43;;;;;;;23.07;39.89;99367.75;5055529;28;20049;-65
2022/08/02 18:14:34;;;;;;;22.13;3.28;;;;;;;23.03;39.95;99369.78;5049716;28;20041;-63
2022/08/02 18:17:13;;;;;;;18.08;3.75;;;;;;;23.00;40.16;99377.13;5050083;28;20049;-75
2022/08/02 18:19:41;;;;;;;25.60;3.25;;;;;;;22.95;40.15;99369.03;5053215;28;20059;-75
2022/08/02 18:22:25;;;;;;;19.10;3.58;;;;;;;22.91;40.25;99373.16;5052361;28;20053;-70
2022/08/02 18:24:53;;;;;;;29.30;3.55;;;;;;;22.86;40.30;99377.25;5053235;28;20045;-70
2022/08/02 18:27:20;;;;;;;17.52;4.35;;;;;;;22.86;40.64;99371.56;5051938;28;20076;-68
2022/08/02 18:29:47;;;;;;;14.13;3.63;;;;;;;22.83;40.74;99363.88;5052046;28;20131;-69
2022/08/02 18:32:26;;;;;;;20.20;3.63;;;;;;;22.77;40.91;99364.78;5067356;28;20048;-68
2022/08/02 18:35:12;;;;;;;11.70;4.15;;;;;;;22.70;41.02;99362.81;5068010;28;20033;-71
2022/08/02 18:37:39;;;;;;;17.80;4.38;;;;;;;22.63;41.25;99362.06;5055327;28;20049;-71
2022/08/02 18:40:12;;;;;;;29.60;4.57;;;;;;;22.64;41.36;99367.31;5040892;28;20051;-69
2022/08/02 18:42:38;;;;;;;17.52;4.10;;;;;;;22.60;41.57;99366.53;5074198;28;20048;-68
2022/08/02 18:45:06;;;;;;;24.90;3.97;;;;;;;22.59;41.58;99362.06;5057828;28;20041;-68
2022/08/02 18:47:45;;;;;;;28.07;4.83;;;;;;;22.56;41.78;99364.97;5056448;28;20088;-66
2022/08/02 18:50:32;;;;;;;23.30;4.93;;;;;;;22.52;41.77;99370.66;5057123;28;20288;-67
2022/08/02 18:52:59;;;;;;;9.77;3.85;;;;;;;22.45;42.01;99370.69;5053275;28;20049;-67
2022/08/02 18:55:26;;;;;;;15.95;4.70;;;;;;;22.39;42.06;99383.69;5053134;28;20052;-67
2022/08/02 18:58:15;;;;;;;22.50;4.28;;;;;;;22.38;42.25;99372.75;5053456;28;20458;-68
2022/08/02 19:00:47;;;;;;;16.25;3.90;;;;;;;22.37;42.12;99376.78;5051512;28;20048;-68
2022/08/02 19:03:17;;;;;;;13.70;3.88;;;;;;;22.32;42.65;99363.88;5055791;28;20491;-68
2022/08/02 19:05:46;;;;;;;14.65;3.88;;;;;;;22.30;42.58;99377.66;5074002;28;20143;-69
2022/08/02 19:08:19;;;;;;;12.75;4.10;;;;;;;22.28;42.61;99382.94;5058986;28;20060;-69
2022/08/02 19:10:52;;;;;;;12.73;4.32;;;;;;;22.25;42.86;99375.25;5052529;28;20110;-69
2022/08/02 19:13:39;;;;;;;11.60;3.63;;;;;;;22.22;42.89;99378.94;5052739;28;20466;-68
2022/08/02 19:16:08;;;;;;;13.20;3.53;;;;;;;22.20;42.87;99386.25;5045365;28;20079;-70
2022/08/02 19:18:36;;;;;;;11.80;4.25;;;;;;;22.16;42.78;99383.41;5053062;28;20130;-69
2022/08/02 19:21:04;;;;;;;13.93;3.33;;;;;;;22.12;43.00;99376.97;5053482;28;20044;-69
2022/08/02 19:23:34;;;;;;;10.88;3.67;;;;;;;22.12;43.22;99384.66;5049960;28;20048;-69
2022/08/02 19:26:01;;;;;;;11.23;3.85;;;;;;;22.11;43.36;99392.34;5050624;28;20053;-66
2022/08/02 19:28:29;;;;;;;16.02;4.05;;;;;;;22.10;43.63;99382.25;5051824;28;20064;-66
2022/08/02 19:30:56;;;;;;;9.30;3.75;;;;;;;22.06;43.49;99384.28;5052627;28;20497;-66
2022/08/02 19:33:23;;;;;;;14.00;3.88;;;;;;;22.04;43.62;99386.72;5052685;28;20053;-66
2022/08/02 19:36:10;;;;;;;8.65;3.53;;;;;;;22.02;43.66;99380.66;5052790;28;20053;-66
2022/08/02 19:38:38;;;;;;;8.77;4.28;;;;;;;22.02;43.81;99383.47;5052750;28;20048;-66
2022/08/02 19:41:11;;;;;;;8.02;3.97;;;;;;;22.02;43.87;99386.31;5052981;28;20533;-66
2022/08/02 19:43:38;;;;;;;9.85;3.85;;;;;;;22.00;44.07;99388.78;5052954;28;20500;-66
2022/08/02 19:46:25;;;;;;;11.50;3.72;;;;;;;21.98;44.07;99384.72;5052690;28;20068;-66
2022/08/02 19:48:52;;;;;;;11.65;3.67;;;;;;;21.97;44.19;99383.94;5052985;28;20091;-66
2022/08/02 19:51:19;;;;;;;7.70;3.85;;;;;;;21.96;44.30;99392.84;5053232;28;20080;-66
2022/08/02 19:54:06;;;;;;;10.50;4.00;;;;;;;21.97;44.37;99391.63;5052742;28;20049;-67
2022/08/02 19:56:39;;;;;;;17.60;4.15;;;;;;;22.02;44.33;99389.16;5051296;28;20049;-76
2022/08/02 19:59:07;;;;;;;15.57;5.18;;;;;;;22.11;44.26;99398.00;5050303;28;20049;-76
2022/08/02 20:01:39;;;;;;;11.05;4.95;;;;;;;22.16;44.37;99406.09;5033292;28;20408;-76
2022/08/02 20:04:14;;;;;;;13.90;4.50;;;;;;;22.20;44.45;99401.19;5032566;28;20100;-75
2022/08/02 20:06:49;;;;;;;15.55;4.88;;;;;;;22.21;44.58;99391.50;5032838;28;20458;-76
2022/08/02 20:09:17;;;;;;;21.15;6.82;;;;;;;22.26;44.57;99393.88;5032786;28;20699;-76
2022/08/02 20:11:49;;;;;;;13.57;5.70;;;;;;;22.26;44.93;99390.25;5032840;28;20148;-67
2022/08/02 20:14:23;;;;;;;19.98;4.68;;;;;;;22.26;44.89;99399.53;5032269;28;20504;-66
2022/08/02 20:16:53;;;;;;;17.85;4.40;;;;;;;22.22;44.87;99393.09;5032407;28;20428;-66
2022/08/02 20:19:20;;;;;;;16.55;5.07;;;;;;;22.20;45.14;99389.84;5032403;28;20136;-67
2022/08/02 20:21:47;;;;;;;14.77;5.05;;;;;;;22.19;45.20;99399.59;5032764;28;20466;-67
2022/08/02 20:24:24;;;;;;;15.23;5.47;;;;;;;22.17;45.20;99402.03;5032818;28;20145;-67
2022/08/02 20:26:52;;;;;;;10.25;4.53;;;;;;;22.14;45.38;99397.19;5047918;28;20049;-67
2022/08/02 20:29:19;;;;;;;12.73;4.25;;;;;;;22.13;45.59;99400.44;5052499;28;20041;-66
2022/08/02 20:32:06;;;;;;;16.20;4.75;;;;;;;22.12;45.53;99402.47;5052055;28;20057;-66
2022/08/02 20:34:33;;;;;;;13.98;4.25;;;;;;;22.15;45.46;99409.34;5034315;28;20515;-68
2022/08/02 20:37:03;;;;;;;16.52;4.53;;;;;;;22.12;45.39;99399.66;5050677;28;20072;-66
2022/08/02 20:39:50;;;;;;;19.52;5.72;;;;;;;22.10;45.42;99402.06;5052429;28;20044;-66
2022/08/02 20:42:19;;;;;;;20.37;4.97;;;;;;;22.03;45.32;99396.44;5052160;28;20060;-67
2022/08/02 20:44:53;;;;;;;10.25;4.57;;;;;;;22.01;45.62;99393.22;5051803;28;20434;-67
2022/08/02 20:47:22;;;;;;;17.85;3.97;;;;;;;21.98;45.58;99393.22;5052280;28;20053;-66
2022/08/02 20:53:02;;;;;;;17.23;5.40;;;;;;;21.90;45.51;99397.31;5052289;28;20518;-67
2022/08/02 20:55:30;;;;;;;8.52;4.13;;;;;;;21.89;45.72;99399.34;5052427;28;20045;-66
2022/08/02 20:57:59;;;;;;;10.90;3.55;;;;;;;21.89;45.68;99396.50;5052490;28;20504;-67
2022/08/02 21:00:29;;;;;;;12.20;4.50;;;;;;;21.87;45.75;99401.78;5052274;28;20048;-66
2022/08/02 21:02:57;;;;;;;13.00;5.25;;;;;;;21.82;45.72;99396.56;5052181;28;20056;-67
2022/08/02 21:05:25;;;;;;;12.90;4.25;;;;;;;21.80;45.83;99396.16;5052013;28;20080;-66
2022/08/02 21:08:14;;;;;;;12.98;3.97;;;;;;;21.77;46.06;99394.13;5051797;28;20061;-66
2022/08/02 21:10:43;;;;;;;6.47;3.70;;;;;;;21.78;45.98;99398.56;5054175;28;20052;-66
2022/08/02 21:13:22;;;;;;;13.20;4.30;;;;;;;21.78;46.04;99401.41;5054267;28;20522;-67
2022/08/02 21:15:53;;;;;;;10.00;4.07;;;;;;;21.78;46.12;99398.56;5055689;28;20493;-67
2022/08/02 21:18:26;;;;;;;11.93;5.53;;;;;;;21.77;45.97;99405.47;5055514;28;20411;-67
2022/08/02 21:21:06;;;;;;;;;;;;;;;21.68;45.97;99402.22;5056170;28;20049;-67
2022/08/02 21:23:34;;;;;;;16.92;4.38;;;;;;;21.77;45.98;99396.97;5055376;28;19924;-67
2022/08/02 21:26:03;;;;;;;13.88;4.20;;;;;;;21.84;45.84;99401.81;5055740;28;20053;-66
2022/08/02 21:28:30;;;;;;;15.00;4.32;;;;;;;21.86;45.91;99402.19;5055643;28;20059;-66
2022/08/02 21:31:14;;;;;;;16.65;3.95;;;;;;;21.87;45.77;99398.16;5055394;28;20189;-66
2022/08/02 21:33:42;;;;;;;15.95;4.75;;;;;;;21.92;45.28;99401.34;5055409;28;20515;-68
2022/08/02 21:36:38;;;;;;;18.52;6.30;;;;;;;22.11;44.44;99402.88;5055794;28;20052;-66
2022/08/02 21:39:07;;;;;;;15.88;4.60;;;;;;;22.17;44.63;99401.22;5055983;28;20078;-68
2022/08/02 21:41:39;;;;;;;9.02;4.22;;;;;;;22.17;44.37;99409.72;5055534;28;20073;-66
2022/08/02 21:44:18;;;;;;;16.38;4.82;;;;;;;22.10;44.76;99406.91;5055603;28;20140;-66
2022/08/02 21:46:46;;;;;;;11.02;4.55;;;;;;;21.99;45.12;99395.66;5048987;28;20053;-67
2022/08/02 21:49:17;;;;;;;15.00;4.70;;;;;;;21.96;45.18;99401.34;5035604;28;20156;-65
2022/08/02 21:51:46;;;;;;;17.92;5.43;;;;;;;21.89;45.46;99407.84;5035045;28;20053;-66
2022/08/02 21:54:16;;;;;;;19.05;4.88;;;;;;;21.81;45.67;99405.44;5051997;28;20059;-66
2022/08/02 21:56:50;;;;;;;17.90;5.13;;;;;;;21.80;45.81;99404.66;5055746;28;20045;-67
2022/08/02 21:59:20;;;;;;;17.15;4.70;;;;;;;21.78;45.72;99409.91;5054974;28;20092;-66
2022/08/02 22:01:54;;;;;;;17.67;4.38;;;;;;;21.73;46.04;99415.94;5053251;28;20077;-67
2022/08/02 22:04:24;;;;;;;9.02;4.63;;;;;;;21.69;46.10;99404.66;5034699;28;20427;-67
2022/08/02 22:06:53;;;;;;;14.23;4.70;;;;;;;21.68;46.05;99410.72;5035073;28;20085;-66
2022/08/02 22:09:24;;;;;;;16.42;4.55;;;;;;;21.65;46.41;99411.53;5034986;28;20071;-66
2022/08/02 22:12:13;;;;;;;15.50;4.82;;;;;;;21.60;46.52;99406.31;5034740;28;20053;-66
2022/08/02 22:14:48;;;;;;;18.20;4.53;;;;;;;21.56;46.50;99411.16;5054132;28;20145;-66
2022/08/02 22:17:35;;;;;;;13.25;4.88;;;;;;;21.52;46.55;99410.34;5046707;28;20053;-66
2022/08/02 22:20:22;;;;;;;13.00;5.20;;;;;;;21.47;46.58;99414.41;5034712;28;20100;-66
2022/08/02 22:22:49;;;;;;;13.25;5.13;;;;;;;21.46;46.61;99412.81;5034538;28;20041;-65
2022/08/02 22:25:18;;;;;;;23.97;5.40;;;;;;;21.37;46.68;99423.75;5034726;28;20132;-66
2022/08/02 22:28:07;;;;;;;13.57;4.88;;;;;;;21.37;46.84;99422.94;5034461;28;20745;-66
2022/08/02 22:30:55;;;;;;;16.77;4.85;;;;;;;21.33;46.87;99420.13;5034367;28;20057;-66
2022/08/02 22:36:38;;;;;;;17.42;4.90;;;;;;;21.35;46.98;99425.38;5034537;28;20053;-67
2022/08/02 22:39:13;;;;;;;19.58;4.75;;;;;;;21.35;46.84;99423.34;5034498;28;20056;-67
2022/08/02 22:41:45;;;;;;;14.15;4.45;;;;;;;21.38;46.88;99422.53;5034388;28;20053;-66
2022/08/02 22:44:32;;;;;;;116.88;46.58;;;;;;;21.36;47.06;99426.97;5034220;28;20142;-67
2022/08/02 22:46:59;;;;;;;15.05;5.22;;;;;;;21.35;46.95;99422.56;5034301;28;20041;-66
2022/08/02 22:49:33;;;;;;;11.93;4.05;;;;;;;21.31;47.06;99421.72;5034162;28;20536;-66
2022/08/02 22:52:11;;;;;;;15.45;5.03;;;;;;;21.29;47.31;99429.84;5034388;28;20140;-66
2022/08/02 22:54:39;;;;;;;18.48;8.00;;;;;;;21.24;47.33;99422.56;5033738;28;20140;-66
2022/08/02 22:57:09;;;;;;;10.45;4.95;;;;;;;21.22;47.26;99422.16;5033144;28;20077;-66
2022/08/02 22:59:37;;;;;;;7.97;3.97;;;;;;;21.18;47.36;99421.38;5033969;28;20072;-68
2022/08/02 23:02:07;;;;;;;11.70;4.05;;;;;;;21.15;47.55;99421.38;5034218;28;20053;-65
2022/08/02 23:04:35;;;;;;;11.27;4.40;;;;;;;21.16;47.64;99420.13;5033468;28;20049;-66
2022/08/02 23:07:02;;;;;;;14.00;4.47;;;;;;;21.15;47.65;99424.19;5033897;28;20091;-66
2022/08/02 23:09:29;;;;;;;17.10;4.90;;;;;;;21.12;47.40;99428.66;5033608;28;20056;-66
2022/08/02 23:11:56;;;;;;;11.07;4.20;;;;;;;21.15;47.35;99436.31;5033778;28;20046;-66
2022/08/02 23:14:23;;;;;;;13.75;4.47;;;;;;;21.09;47.43;99422.97;5050034;28;20045;-66
2022/08/02 23:19:50;;;;;;;10.70;4.03;;;;;;;21.08;47.62;99441.19;5053510;28;20447;-66
2022/08/02 23:22:20;;;;;;;9.35;4.30;;;;;;;21.08;47.66;99435.53;5053570;28;20102;-67
2022/08/02 23:24:59;;;;;;;13.27;4.85;;;;;;;21.09;47.80;99442.78;5053481;28;20049;-66
2022/08/02 23:27:28;;;;;;;16.02;3.97;;;;;;;21.07;47.74;99446.03;5053081;28;20111;-66
2022/08/02 23:29:55;;;;;;;20.00;5.18;;;;;;;21.05;47.99;99445.59;5053190;28;20049;-66
2022/08/02 23:32:23;;;;;;;10.45;4.90;;;;;;;21.04;47.91;99446.84;5053348;28;20400;-66
2022/08/02 23:34:55;;;;;;;7.82;4.40;;;;;;;21.02;47.95;99442.81;5053289;28;20048;-68
2022/08/02 23:37:23;;;;;;;10.45;4.32;;;;;;;21.02;48.26;99442.81;5053024;28;20075;-65
2022/08/02 23:39:52;;;;;;;7.75;4.55;;;;;;;20.99;48.38;99449.28;5053208;28;20041;-67
2022/08/02 23:42:19;;;;;;;20.83;5.00;;;;;;;20.97;48.39;99457.34;5036042;28;20095;-66
2022/08/02 23:44:46;;;;;;;17.15;4.95;;;;;;;20.97;48.46;99457.34;5033421;28;20049;-67
2022/08/02 23:47:12;;;;;;;7.93;4.78;;;;;;;20.98;48.65;99458.94;5048384;28;20152;-67
2022/08/02 23:49:39;;;;;;;11.30;5.05;;;;;;;20.97;48.58;99457.34;5052945;28;20048;-66
2022/08/02 23:52:06;;;;;;;12.63;4.78;;;;;;;20.96;48.67;99452.91;5053350;28;20045;-65
2022/08/02 23:54:34;;;;;;;13.02;5.20;;;;;;;20.96;48.92;99459.34;5052547;28;20041;-66
2022/08/02 23:57:01;;;;;;;18.88;5.43;;;;;;;20.98;48.87;99464.59;5052868;28;20216;-65
2022/08/02 23:59:47;;;;;;;12.40;5.68;;;;;;;20.97;49.11;99471.47;5052861;28;20048;-66
